sensor_id;sensor_type;location;lat;lon;timestamp;P1;durP1;ratioP1;P2;durP2;ratioP2
72406;SDS011;60396;47.550;18.828;2023-05-07T00:02:18;6.70;;;2.20;;
72406;SDS011;60396;47.550;18.828;2023-05-07T00:04:46;5.70;;;2.23;;
72406;SDS011;60396;47.550;18.828;2023-05-07T00:07:14;4.93;;;2.20;;
72406;SDS011;60396;47.550;18.828;2023-05-07T00:09:42;10.50;;;2.85;;
72406;SDS011;60396;47.550;18.828;2023-05-07T00:12:10;7.43;;;2.37;;
72406;SDS011;60396;47.550;18.828;2023-05-07T00:14:38;6.32;;;2.70;;
72406;SDS011;60396;47.550;18.828;2023-05-07T00:17:05;5.80;;;2.47;;
72406;SDS011;60396;47.550;18.828;2023-05-07T00:19:33;6.95;;;2.83;;
72406;SDS011;60396;47.550;18.828;2023-05-07T00:22:01;6.45;;;2.87;;
72406;SDS011;60396;47.550;18.828;2023-05-07T00:24:28;7.70;;;3.10;;
72406;SDS011;60396;47.550;18.828;2023-05-07T00:26:56;8.38;;;3.10;;
72406;SDS011;60396;47.550;18.828;2023-05-07T00:29:25;6.67;;;3.00;;
72406;SDS011;60396;47.550;18.828;2023-05-07T00:31:53;7.03;;;3.17;;
72406;SDS011;60396;47.550;18.828;2023-05-07T00:34:22;7.78;;;3.90;;
72406;SDS011;60396;47.550;18.828;2023-05-07T00:36:50;7.30;;;3.12;;
72406;SDS011;60396;47.550;18.828;2023-05-07T00:39:18;7.62;;;3.45;;
72406;SDS011;60396;47.550;18.828;2023-05-07T00:41:46;7.10;;;3.20;;
72406;SDS011;60396;47.550;18.828;2023-05-07T00:44:14;10.00;;;3.12;;
72406;SDS011;60396;47.550;18.828;2023-05-07T00:46:42;6.70;;;2.90;;
72406;SDS011;60396;47.550;18.828;2023-05-07T00:49:10;6.70;;;3.08;;
72406;SDS011;60396;47.550;18.828;2023-05-07T00:51:38;6.47;;;3.03;;
72406;SDS011;60396;47.550;18.828;2023-05-07T00:54:07;7.37;;;3.23;;
72406;SDS011;60396;47.550;18.828;2023-05-07T00:56:35;7.30;;;3.28;;
72406;SDS011;60396;47.550;18.828;2023-05-07T00:59:03;8.48;;;3.72;;
72406;SDS011;60396;47.550;18.828;2023-05-07T01:01:31;7.12;;;3.47;;
72406;SDS011;60396;47.550;18.828;2023-05-07T01:03:59;7.22;;;3.60;;
72406;SDS011;60396;47.550;18.828;2023-05-07T01:06:27;7.87;;;3.37;;
72406;SDS011;60396;47.550;18.828;2023-05-07T01:08:57;7.53;;;3.17;;
72406;SDS011;60396;47.550;18.828;2023-05-07T01:11:26;8.20;;;3.70;;
72406;SDS011;60396;47.550;18.828;2023-05-07T01:13:54;6.75;;;3.17;;
72406;SDS011;60396;47.550;18.828;2023-05-07T01:16:22;8.75;;;3.10;;
72406;SDS011;60396;47.550;18.828;2023-05-07T01:18:50;7.80;;;2.87;;
72406;SDS011;60396;47.550;18.828;2023-05-07T01:21:17;7.35;;;3.28;;
72406;SDS011;60396;47.550;18.828;2023-05-07T01:23:45;8.10;;;3.50;;
72406;SDS011;60396;47.550;18.828;2023-05-07T01:26:14;6.80;;;2.92;;
72406;SDS011;60396;47.550;18.828;2023-05-07T01:28:43;6.53;;;2.80;;
72406;SDS011;60396;47.550;18.828;2023-05-07T01:31:12;6.70;;;2.90;;
72406;SDS011;60396;47.550;18.828;2023-05-07T01:33:41;7.25;;;2.45;;
72406;SDS011;60396;47.550;18.828;2023-05-07T01:36:11;6.55;;;2.42;;
72406;SDS011;60396;47.550;18.828;2023-05-07T01:38:40;9.23;;;2.78;;
72406;SDS011;60396;47.550;18.828;2023-05-07T01:41:08;6.10;;;2.78;;
72406;SDS011;60396;47.550;18.828;2023-05-07T01:43:36;6.37;;;2.47;;
72406;SDS011;60396;47.550;18.828;2023-05-07T01:46:04;6.40;;;2.92;;
72406;SDS011;60396;47.550;18.828;2023-05-07T01:48:32;6.82;;;2.47;;
72406;SDS011;60396;47.550;18.828;2023-05-07T01:51:00;7.45;;;2.60;;
72406;SDS011;60396;47.550;18.828;2023-05-07T01:53:28;6.30;;;2.65;;
72406;SDS011;60396;47.550;18.828;2023-05-07T01:55:56;7.30;;;2.60;;
72406;SDS011;60396;47.550;18.828;2023-05-07T01:58:24;6.47;;;2.80;;
72406;SDS011;60396;47.550;18.828;2023-05-07T02:00:52;6.50;;;2.50;;
72406;SDS011;60396;47.550;18.828;2023-05-07T02:03:20;5.90;;;2.10;;
72406;SDS011;60396;47.550;18.828;2023-05-07T02:05:48;9.30;;;2.62;;
72406;SDS011;60396;47.550;18.828;2023-05-07T02:08:17;6.17;;;2.50;;
72406;SDS011;60396;47.550;18.828;2023-05-07T02:10:46;6.25;;;2.30;;
72406;SDS011;60396;47.550;18.828;2023-05-07T02:13:13;7.07;;;2.30;;
72406;SDS011;60396;47.550;18.828;2023-05-07T02:15:41;8.45;;;2.70;;
72406;SDS011;60396;47.550;18.828;2023-05-07T02:18:09;5.30;;;2.20;;
72406;SDS011;60396;47.550;18.828;2023-05-07T02:20:37;5.60;;;2.17;;
72406;SDS011;60396;47.550;18.828;2023-05-07T02:23:04;6.93;;;2.10;;
72406;SDS011;60396;47.550;18.828;2023-05-07T02:25:32;5.82;;;2.30;;
72406;SDS011;60396;47.550;18.828;2023-05-07T02:28:00;7.97;;;2.25;;
72406;SDS011;60396;47.550;18.828;2023-05-07T02:30:29;6.35;;;2.40;;
72406;SDS011;60396;47.550;18.828;2023-05-07T02:32:57;5.33;;;2.10;;
72406;SDS011;60396;47.550;18.828;2023-05-07T02:35:25;4.85;;;1.85;;
72406;SDS011;60396;47.550;18.828;2023-05-07T02:37:53;5.53;;;2.33;;
72406;SDS011;60396;47.550;18.828;2023-05-07T02:40:22;5.57;;;1.90;;
72406;SDS011;60396;47.550;18.828;2023-05-07T02:42:49;6.35;;;2.28;;
72406;SDS011;60396;47.550;18.828;2023-05-07T02:45:17;6.87;;;1.80;;
72406;SDS011;60396;47.550;18.828;2023-05-07T02:47:45;6.28;;;2.25;;
72406;SDS011;60396;47.550;18.828;2023-05-07T02:50:13;4.57;;;1.77;;
72406;SDS011;60396;47.550;18.828;2023-05-07T02:52:42;5.32;;;1.92;;
72406;SDS011;60396;47.550;18.828;2023-05-07T02:55:10;5.03;;;1.80;;
72406;SDS011;60396;47.550;18.828;2023-05-07T02:57:37;5.57;;;2.27;;
72406;SDS011;60396;47.550;18.828;2023-05-07T03:00:16;5.93;;;1.90;;
72406;SDS011;60396;47.550;18.828;2023-05-07T03:02:46;5.37;;;2.17;;
72406;SDS011;60396;47.550;18.828;2023-05-07T03:05:14;5.12;;;1.80;;
72406;SDS011;60396;47.550;18.828;2023-05-07T03:07:41;7.25;;;2.03;;
72406;SDS011;60396;47.550;18.828;2023-05-07T03:10:12;6.00;;;2.10;;
72406;SDS011;60396;47.550;18.828;2023-05-07T03:12:41;6.30;;;2.30;;
72406;SDS011;60396;47.550;18.828;2023-05-07T03:15:09;5.47;;;2.33;;
72406;SDS011;60396;47.550;18.828;2023-05-07T03:17:40;6.28;;;2.60;;
72406;SDS011;60396;47.550;18.828;2023-05-07T03:20:08;5.80;;;2.12;;
72406;SDS011;60396;47.550;18.828;2023-05-07T03:22:37;6.50;;;2.07;;
72406;SDS011;60396;47.550;18.828;2023-05-07T03:25:06;9.05;;;2.70;;
72406;SDS011;60396;47.550;18.828;2023-05-07T03:27:34;8.50;;;2.47;;
72406;SDS011;60396;47.550;18.828;2023-05-07T03:30:01;5.80;;;2.25;;
72406;SDS011;60396;47.550;18.828;2023-05-07T03:32:30;5.95;;;2.17;;
72406;SDS011;60396;47.550;18.828;2023-05-07T03:34:58;8.33;;;2.20;;
72406;SDS011;60396;47.550;18.828;2023-05-07T03:37:25;6.20;;;2.10;;
72406;SDS011;60396;47.550;18.828;2023-05-07T03:39:53;6.12;;;2.33;;
72406;SDS011;60396;47.550;18.828;2023-05-07T03:42:21;5.25;;;1.90;;
72406;SDS011;60396;47.550;18.828;2023-05-07T03:44:49;7.95;;;1.83;;
72406;SDS011;60396;47.550;18.828;2023-05-07T03:47:17;4.77;;;1.70;;
72406;SDS011;60396;47.550;18.828;2023-05-07T03:49:45;5.37;;;1.92;;
72406;SDS011;60396;47.550;18.828;2023-05-07T03:52:12;6.30;;;1.62;;
72406;SDS011;60396;47.550;18.828;2023-05-07T03:54:43;5.65;;;1.70;;
72406;SDS011;60396;47.550;18.828;2023-05-07T03:57:11;5.28;;;1.80;;
72406;SDS011;60396;47.550;18.828;2023-05-07T03:59:39;7.00;;;1.93;;
72406;SDS011;60396;47.550;18.828;2023-05-07T04:02:07;6.43;;;2.08;;
72406;SDS011;60396;47.550;18.828;2023-05-07T04:04:35;5.57;;;1.98;;
72406;SDS011;60396;47.550;18.828;2023-05-07T04:07:03;5.95;;;1.87;;
72406;SDS011;60396;47.550;18.828;2023-05-07T04:09:32;3.97;;;1.50;;
72406;SDS011;60396;47.550;18.828;2023-05-07T04:12:00;6.87;;;2.03;;
72406;SDS011;60396;47.550;18.828;2023-05-07T04:14:29;5.12;;;1.50;;
72406;SDS011;60396;47.550;18.828;2023-05-07T04:16:59;5.30;;;1.92;;
72406;SDS011;60396;47.550;18.828;2023-05-07T04:19:28;4.45;;;1.30;;
72406;SDS011;60396;47.550;18.828;2023-05-07T04:21:55;3.65;;;1.42;;
72406;SDS011;60396;47.550;18.828;2023-05-07T04:24:23;5.03;;;1.40;;
72406;SDS011;60396;47.550;18.828;2023-05-07T04:26:51;4.43;;;1.50;;
72406;SDS011;60396;47.550;18.828;2023-05-07T04:29:20;4.80;;;1.80;;
72406;SDS011;60396;47.550;18.828;2023-05-07T04:31:48;5.95;;;1.70;;
72406;SDS011;60396;47.550;18.828;2023-05-07T04:34:16;4.28;;;1.60;;
72406;SDS011;60396;47.550;18.828;2023-05-07T04:36:43;4.00;;;1.50;;
72406;SDS011;60396;47.550;18.828;2023-05-07T04:39:12;4.75;;;1.62;;
72406;SDS011;60396;47.550;18.828;2023-05-07T04:41:40;4.50;;;1.45;;
72406;SDS011;60396;47.550;18.828;2023-05-07T04:44:08;4.65;;;1.50;;
72406;SDS011;60396;47.550;18.828;2023-05-07T04:46:36;4.45;;;1.50;;
72406;SDS011;60396;47.550;18.828;2023-05-07T04:49:04;4.27;;;1.33;;
72406;SDS011;60396;47.550;18.828;2023-05-07T04:51:34;4.28;;;1.40;;
72406;SDS011;60396;47.550;18.828;2023-05-07T04:54:02;3.87;;;1.30;;
72406;SDS011;60396;47.550;18.828;2023-05-07T04:56:30;4.57;;;1.42;;
72406;SDS011;60396;47.550;18.828;2023-05-07T04:58:58;4.72;;;1.70;;
72406;SDS011;60396;47.550;18.828;2023-05-07T05:01:25;3.90;;;1.30;;
72406;SDS011;60396;47.550;18.828;2023-05-07T05:03:54;6.12;;;2.05;;
72406;SDS011;60396;47.550;18.828;2023-05-07T05:06:21;5.30;;;1.77;;
72406;SDS011;60396;47.550;18.828;2023-05-07T05:08:49;4.85;;;1.80;;
72406;SDS011;60396;47.550;18.828;2023-05-07T05:11:17;6.50;;;1.80;;
72406;SDS011;60396;47.550;18.828;2023-05-07T05:13:45;5.77;;;1.80;;
72406;SDS011;60396;47.550;18.828;2023-05-07T05:16:15;4.82;;;1.45;;
72406;SDS011;60396;47.550;18.828;2023-05-07T05:18:43;5.20;;;1.90;;
72406;SDS011;60396;47.550;18.828;2023-05-07T05:21:11;5.87;;;2.05;;
72406;SDS011;60396;47.550;18.828;2023-05-07T05:23:39;5.87;;;1.80;;
72406;SDS011;60396;47.550;18.828;2023-05-07T05:26:08;6.50;;;2.33;;
72406;SDS011;60396;47.550;18.828;2023-05-07T05:28:36;6.68;;;2.85;;
72406;SDS011;60396;47.550;18.828;2023-05-07T05:31:04;8.82;;;2.72;;
72406;SDS011;60396;47.550;18.828;2023-05-07T05:33:33;7.00;;;3.08;;
72406;SDS011;60396;47.550;18.828;2023-05-07T05:36:01;7.32;;;3.22;;
72406;SDS011;60396;47.550;18.828;2023-05-07T05:38:29;7.60;;;3.60;;
72406;SDS011;60396;47.550;18.828;2023-05-07T05:40:57;9.65;;;4.78;;
72406;SDS011;60396;47.550;18.828;2023-05-07T05:43:25;12.30;;;5.68;;
72406;SDS011;60396;47.550;18.828;2023-05-07T05:45:52;12.43;;;6.15;;
72406;SDS011;60396;47.550;18.828;2023-05-07T05:48:21;10.45;;;5.62;;
72406;SDS011;60396;47.550;18.828;2023-05-07T05:50:49;10.27;;;5.70;;
72406;SDS011;60396;47.550;18.828;2023-05-07T05:53:18;10.75;;;5.30;;
72406;SDS011;60396;47.550;18.828;2023-05-07T05:55:46;10.07;;;5.20;;
72406;SDS011;60396;47.550;18.828;2023-05-07T05:58:13;8.88;;;4.37;;
72406;SDS011;60396;47.550;18.828;2023-05-07T06:00:44;8.02;;;3.90;;
72406;SDS011;60396;47.550;18.828;2023-05-07T06:03:13;8.60;;;4.17;;
72406;SDS011;60396;47.550;18.828;2023-05-07T06:05:42;8.43;;;4.22;;
72406;SDS011;60396;47.550;18.828;2023-05-07T06:08:09;8.77;;;4.30;;
72406;SDS011;60396;47.550;18.828;2023-05-07T06:10:37;7.62;;;3.87;;
72406;SDS011;60396;47.550;18.828;2023-05-07T06:13:06;7.28;;;3.50;;
72406;SDS011;60396;47.550;18.828;2023-05-07T06:15:36;7.70;;;3.17;;
72406;SDS011;60396;47.550;18.828;2023-05-07T06:18:05;8.68;;;4.12;;
72406;SDS011;60396;47.550;18.828;2023-05-07T06:20:32;8.93;;;4.47;;
72406;SDS011;60396;47.550;18.828;2023-05-07T06:23:01;7.35;;;3.58;;
72406;SDS011;60396;47.550;18.828;2023-05-07T06:25:31;7.90;;;3.72;;
72406;SDS011;60396;47.550;18.828;2023-05-07T06:28:01;8.93;;;4.03;;
72406;SDS011;60396;47.550;18.828;2023-05-07T06:30:30;6.45;;;2.67;;
72406;SDS011;60396;47.550;18.828;2023-05-07T06:32:58;6.15;;;2.10;;
72406;SDS011;60396;47.550;18.828;2023-05-07T06:35:26;5.10;;;1.98;;
72406;SDS011;60396;47.550;18.828;2023-05-07T06:37:54;5.57;;;2.50;;
72406;SDS011;60396;47.550;18.828;2023-05-07T06:40:22;7.57;;;2.83;;
72406;SDS011;60396;47.550;18.828;2023-05-07T06:42:50;7.50;;;3.12;;
72406;SDS011;60396;47.550;18.828;2023-05-07T06:45:19;9.35;;;3.90;;
72406;SDS011;60396;47.550;18.828;2023-05-07T06:47:47;9.40;;;4.15;;
72406;SDS011;60396;47.550;18.828;2023-05-07T06:50:15;8.52;;;3.62;;
72406;SDS011;60396;47.550;18.828;2023-05-07T06:52:44;7.13;;;3.13;;
72406;SDS011;60396;47.550;18.828;2023-05-07T06:55:12;11.57;;;2.87;;
72406;SDS011;60396;47.550;18.828;2023-05-07T06:57:42;7.72;;;2.85;;
72406;SDS011;60396;47.550;18.828;2023-05-07T07:00:10;8.18;;;2.70;;
72406;SDS011;60396;47.550;18.828;2023-05-07T07:02:40;6.90;;;3.10;;
72406;SDS011;60396;47.550;18.828;2023-05-07T07:05:08;7.53;;;2.70;;
72406;SDS011;60396;47.550;18.828;2023-05-07T07:07:37;6.90;;;3.20;;
72406;SDS011;60396;47.550;18.828;2023-05-07T07:10:05;8.23;;;4.10;;
72406;SDS011;60396;47.550;18.828;2023-05-07T07:12:34;8.98;;;3.25;;
72406;SDS011;60396;47.550;18.828;2023-05-07T07:15:03;6.90;;;3.20;;
72406;SDS011;60396;47.550;18.828;2023-05-07T07:17:31;7.37;;;3.50;;
72406;SDS011;60396;47.550;18.828;2023-05-07T07:19:59;8.60;;;4.03;;
72406;SDS011;60396;47.550;18.828;2023-05-07T07:22:29;11.38;;;4.68;;
72406;SDS011;60396;47.550;18.828;2023-05-07T07:24:56;10.40;;;4.18;;
72406;SDS011;60396;47.550;18.828;2023-05-07T07:27:24;9.18;;;5.07;;
72406;SDS011;60396;47.550;18.828;2023-05-07T07:29:52;9.10;;;4.57;;
72406;SDS011;60396;47.550;18.828;2023-05-07T07:32:20;11.57;;;6.37;;
72406;SDS011;60396;47.550;18.828;2023-05-07T07:34:48;10.40;;;6.20;;
72406;SDS011;60396;47.550;18.828;2023-05-07T07:37:16;12.80;;;6.40;;
72406;SDS011;60396;47.550;18.828;2023-05-07T07:39:44;11.52;;;6.70;;
72406;SDS011;60396;47.550;18.828;2023-05-07T07:42:13;15.10;;;7.00;;
72406;SDS011;60396;47.550;18.828;2023-05-07T07:44:41;12.88;;;6.85;;
72406;SDS011;60396;47.550;18.828;2023-05-07T07:47:08;11.85;;;7.07;;
72406;SDS011;60396;47.550;18.828;2023-05-07T07:49:37;12.18;;;6.95;;
72406;SDS011;60396;47.550;18.828;2023-05-07T07:52:05;14.43;;;7.90;;
72406;SDS011;60396;47.550;18.828;2023-05-07T07:54:33;14.57;;;7.10;;
72406;SDS011;60396;47.550;18.828;2023-05-07T07:57:01;14.25;;;8.30;;
72406;SDS011;60396;47.550;18.828;2023-05-07T07:59:30;14.90;;;8.23;;
72406;SDS011;60396;47.550;18.828;2023-05-07T08:01:58;14.05;;;8.55;;
72406;SDS011;60396;47.550;18.828;2023-05-07T08:04:27;13.75;;;8.13;;
72406;SDS011;60396;47.550;18.828;2023-05-07T08:06:55;15.17;;;8.83;;
72406;SDS011;60396;47.550;18.828;2023-05-07T08:09:23;14.85;;;8.20;;
72406;SDS011;60396;47.550;18.828;2023-05-07T08:11:51;16.95;;;9.85;;
72406;SDS011;60396;47.550;18.828;2023-05-07T08:14:19;14.68;;;9.02;;
72406;SDS011;60396;47.550;18.828;2023-05-07T08:16:47;16.35;;;9.15;;
72406;SDS011;60396;47.550;18.828;2023-05-07T08:19:16;14.47;;;8.50;;
72406;SDS011;60396;47.550;18.828;2023-05-07T08:21:44;13.73;;;8.68;;
72406;SDS011;60396;47.550;18.828;2023-05-07T08:24:12;15.43;;;8.10;;
72406;SDS011;60396;47.550;18.828;2023-05-07T08:26:40;16.67;;;8.40;;
72406;SDS011;60396;47.550;18.828;2023-05-07T08:29:09;13.32;;;8.10;;
72406;SDS011;60396;47.550;18.828;2023-05-07T08:31:39;15.83;;;8.27;;
72406;SDS011;60396;47.550;18.828;2023-05-07T08:34:09;13.62;;;7.45;;
72406;SDS011;60396;47.550;18.828;2023-05-07T08:36:37;12.07;;;7.25;;
72406;SDS011;60396;47.550;18.828;2023-05-07T08:39:05;10.93;;;5.55;;
72406;SDS011;60396;47.550;18.828;2023-05-07T08:41:33;13.48;;;7.60;;
72406;SDS011;60396;47.550;18.828;2023-05-07T08:44:02;12.23;;;7.67;;
72406;SDS011;60396;47.550;18.828;2023-05-07T08:46:31;11.88;;;7.32;;
72406;SDS011;60396;47.550;18.828;2023-05-07T08:48:59;12.02;;;7.05;;
72406;SDS011;60396;47.550;18.828;2023-05-07T08:51:27;14.07;;;8.00;;
72406;SDS011;60396;47.550;18.828;2023-05-07T08:53:56;11.23;;;6.37;;
72406;SDS011;60396;47.550;18.828;2023-05-07T08:56:23;11.83;;;6.50;;
72406;SDS011;60396;47.550;18.828;2023-05-07T08:58:54;12.27;;;6.80;;
72406;SDS011;60396;47.550;18.828;2023-05-07T09:01:26;11.48;;;6.70;;
72406;SDS011;60396;47.550;18.828;2023-05-07T09:03:54;13.68;;;7.75;;
72406;SDS011;60396;47.550;18.828;2023-05-07T09:06:22;13.55;;;7.90;;
72406;SDS011;60396;47.550;18.828;2023-05-07T09:08:53;15.53;;;7.90;;
72406;SDS011;60396;47.550;18.828;2023-05-07T09:11:23;11.50;;;6.47;;
72406;SDS011;60396;47.550;18.828;2023-05-07T09:13:54;12.32;;;7.47;;
72406;SDS011;60396;47.550;18.828;2023-05-07T09:16:25;12.37;;;6.55;;
72406;SDS011;60396;47.550;18.828;2023-05-07T09:18:57;12.18;;;6.87;;
72406;SDS011;60396;47.550;18.828;2023-05-07T09:21:26;12.73;;;7.30;;
72406;SDS011;60396;47.550;18.828;2023-05-07T09:23:55;12.75;;;5.65;;
72406;SDS011;60396;47.550;18.828;2023-05-07T09:26:24;11.00;;;5.75;;
72406;SDS011;60396;47.550;18.828;2023-05-07T09:28:52;12.48;;;6.50;;
72406;SDS011;60396;47.550;18.828;2023-05-07T09:31:24;14.25;;;7.00;;
72406;SDS011;60396;47.550;18.828;2023-05-07T09:33:54;12.13;;;6.30;;
72406;SDS011;60396;47.550;18.828;2023-05-07T09:36:25;11.50;;;7.03;;
72406;SDS011;60396;47.550;18.828;2023-05-07T09:38:54;10.68;;;6.60;;
72406;SDS011;60396;47.550;18.828;2023-05-07T09:41:24;13.02;;;6.70;;
72406;SDS011;60396;47.550;18.828;2023-05-07T09:43:53;12.07;;;7.10;;
72406;SDS011;60396;47.550;18.828;2023-05-07T09:46:25;12.00;;;6.50;;
72406;SDS011;60396;47.550;18.828;2023-05-07T09:48:57;11.73;;;7.05;;
72406;SDS011;60396;47.550;18.828;2023-05-07T09:51:29;13.73;;;6.60;;
72406;SDS011;60396;47.550;18.828;2023-05-07T09:54:00;12.10;;;6.55;;
72406;SDS011;60396;47.550;18.828;2023-05-07T09:56:33;11.27;;;6.00;;
72406;SDS011;60396;47.550;18.828;2023-05-07T09:59:01;10.07;;;5.80;;
72406;SDS011;60396;47.550;18.828;2023-05-07T10:01:31;12.10;;;6.68;;
72406;SDS011;60396;47.550;18.828;2023-05-07T10:04:01;12.50;;;6.05;;
72406;SDS011;60396;47.550;18.828;2023-05-07T10:06:29;12.60;;;6.62;;
72406;SDS011;60396;47.550;18.828;2023-05-07T10:08:59;11.95;;;6.12;;
72406;SDS011;60396;47.550;18.828;2023-05-07T10:11:27;9.40;;;5.30;;
72406;SDS011;60396;47.550;18.828;2023-05-07T10:13:58;8.95;;;4.50;;
72406;SDS011;60396;47.550;18.828;2023-05-07T10:16:33;8.38;;;4.00;;
72406;SDS011;60396;47.550;18.828;2023-05-07T10:19:04;8.02;;;3.62;;
72406;SDS011;60396;47.550;18.828;2023-05-07T10:21:34;10.23;;;4.75;;
72406;SDS011;60396;47.550;18.828;2023-05-07T10:24:15;8.10;;;3.63;;
72406;SDS011;60396;47.550;18.828;2023-05-07T10:26:48;7.53;;;3.62;;
72406;SDS011;60396;47.550;18.828;2023-05-07T10:29:35;8.98;;;3.58;;
72406;SDS011;60396;47.550;18.828;2023-05-07T10:34:54;7.18;;;3.00;;
72406;SDS011;60396;47.550;18.828;2023-05-07T10:37:22;7.73;;;3.40;;
72406;SDS011;60396;47.550;18.828;2023-05-07T10:39:52;8.35;;;2.95;;
72406;SDS011;60396;47.550;18.828;2023-05-07T10:42:21;7.15;;;3.62;;
72406;SDS011;60396;47.550;18.828;2023-05-07T10:44:49;6.03;;;2.80;;
72406;SDS011;60396;47.550;18.828;2023-05-07T10:47:18;7.57;;;3.37;;
72406;SDS011;60396;47.550;18.828;2023-05-07T10:52:35;6.97;;;3.70;;
72406;SDS011;60396;47.550;18.828;2023-05-07T10:57:47;7.93;;;3.10;;
72406;SDS011;60396;47.550;18.828;2023-05-07T11:03:06;6.60;;;2.57;;
72406;SDS011;60396;47.550;18.828;2023-05-07T11:05:39;6.85;;;2.80;;
72406;SDS011;60396;47.550;18.828;2023-05-07T11:08:08;6.68;;;3.15;;
72406;SDS011;60396;47.550;18.828;2023-05-07T11:10:56;8.18;;;3.35;;
72406;SDS011;60396;47.550;18.828;2023-05-07T11:13:41;7.65;;;2.95;;
72406;SDS011;60396;47.550;18.828;2023-05-07T11:16:21;6.43;;;2.70;;
72406;SDS011;60396;47.550;18.828;2023-05-07T11:18:55;8.98;;;3.60;;
72406;SDS011;60396;47.550;18.828;2023-05-07T11:21:40;6.62;;;3.33;;
72406;SDS011;60396;47.550;18.828;2023-05-07T11:24:10;7.03;;;2.70;;
72406;SDS011;60396;47.550;18.828;2023-05-07T11:29:10;5.93;;;2.77;;
72406;SDS011;60396;47.550;18.828;2023-05-07T11:31:41;6.25;;;2.90;;
72406;SDS011;60396;47.550;18.828;2023-05-07T11:34:10;5.93;;;2.70;;
72406;SDS011;60396;47.550;18.828;2023-05-07T11:36:41;7.30;;;3.30;;
72406;SDS011;60396;47.550;18.828;2023-05-07T11:39:23;10.27;;;3.67;;
72406;SDS011;60396;47.550;18.828;2023-05-07T11:41:54;7.67;;;3.10;;
72406;SDS011;60396;47.550;18.828;2023-05-07T11:44:22;8.95;;;3.50;;
72406;SDS011;60396;47.550;18.828;2023-05-07T11:46:50;6.32;;;3.08;;
72406;SDS011;60396;47.550;18.828;2023-05-07T11:49:18;6.05;;;2.90;;
72406;SDS011;60396;47.550;18.828;2023-05-07T11:51:46;7.40;;;3.53;;
72406;SDS011;60396;47.550;18.828;2023-05-07T11:54:15;6.90;;;3.20;;
72406;SDS011;60396;47.550;18.828;2023-05-07T11:56:43;9.57;;;3.20;;
72406;SDS011;60396;47.550;18.828;2023-05-07T11:59:16;8.90;;;3.30;;
72406;SDS011;60396;47.550;18.828;2023-05-07T12:01:47;8.60;;;3.37;;
72406;SDS011;60396;47.550;18.828;2023-05-07T12:04:18;6.97;;;2.75;;
72406;SDS011;60396;47.550;18.828;2023-05-07T12:06:48;7.43;;;3.17;;
72406;SDS011;60396;47.550;18.828;2023-05-07T12:09:18;7.03;;;2.80;;
72406;SDS011;60396;47.550;18.828;2023-05-07T12:11:46;7.05;;;3.30;;
72406;SDS011;60396;47.550;18.828;2023-05-07T12:14:14;7.53;;;3.28;;
72406;SDS011;60396;47.550;18.828;2023-05-07T12:16:43;8.07;;;3.40;;
72406;SDS011;60396;47.550;18.828;2023-05-07T12:19:12;6.77;;;2.73;;
72406;SDS011;60396;47.550;18.828;2023-05-07T12:21:42;6.40;;;2.50;;
72406;SDS011;60396;47.550;18.828;2023-05-07T12:24:16;7.03;;;2.58;;
72406;SDS011;60396;47.550;18.828;2023-05-07T12:26:43;7.07;;;2.87;;
72406;SDS011;60396;47.550;18.828;2023-05-07T12:29:14;7.53;;;2.67;;
72406;SDS011;60396;47.550;18.828;2023-05-07T12:31:42;6.53;;;2.70;;
72406;SDS011;60396;47.550;18.828;2023-05-07T12:34:16;6.68;;;3.10;;
72406;SDS011;60396;47.550;18.828;2023-05-07T12:36:43;9.38;;;3.60;;
72406;SDS011;60396;47.550;18.828;2023-05-07T12:39:11;7.78;;;3.12;;
72406;SDS011;60396;47.550;18.828;2023-05-07T12:41:55;6.65;;;3.33;;
72406;SDS011;60396;47.550;18.828;2023-05-07T12:44:25;6.87;;;3.43;;
72406;SDS011;60396;47.550;18.828;2023-05-07T12:46:57;6.72;;;3.37;;
72406;SDS011;60396;47.550;18.828;2023-05-07T12:49:25;6.95;;;3.28;;
72406;SDS011;60396;47.550;18.828;2023-05-07T12:51:53;6.72;;;2.95;;
72406;SDS011;60396;47.550;18.828;2023-05-07T12:54:30;8.35;;;3.75;;
72406;SDS011;60396;47.550;18.828;2023-05-07T12:57:03;7.47;;;2.90;;
72406;SDS011;60396;47.550;18.828;2023-05-07T12:59:36;7.85;;;3.00;;
72406;SDS011;60396;47.550;18.828;2023-05-07T13:02:05;6.65;;;3.05;;
72406;SDS011;60396;47.550;18.828;2023-05-07T13:04:34;6.78;;;3.05;;
72406;SDS011;60396;47.550;18.828;2023-05-07T13:07:09;7.80;;;3.08;;
72406;SDS011;60396;47.550;18.828;2023-05-07T13:09:40;8.80;;;3.20;;
72406;SDS011;60396;47.550;18.828;2023-05-07T13:12:08;8.00;;;3.20;;
72406;SDS011;60396;47.550;18.828;2023-05-07T13:14:36;8.68;;;3.25;;
72406;SDS011;60396;47.550;18.828;2023-05-07T13:17:11;7.43;;;3.47;;
72406;SDS011;60396;47.550;18.828;2023-05-07T13:19:39;7.80;;;3.40;;
72406;SDS011;60396;47.550;18.828;2023-05-07T13:22:07;7.77;;;3.40;;
72406;SDS011;60396;47.550;18.828;2023-05-07T13:24:34;6.93;;;3.40;;
72406;SDS011;60396;47.550;18.828;2023-05-07T13:27:02;6.55;;;2.80;;
72406;SDS011;60396;47.550;18.828;2023-05-07T13:29:34;6.50;;;2.60;;
72406;SDS011;60396;47.550;18.828;2023-05-07T13:32:01;6.12;;;2.60;;
72406;SDS011;60396;47.550;18.828;2023-05-07T13:34:29;6.53;;;2.93;;
72406;SDS011;60396;47.550;18.828;2023-05-07T13:36:57;8.30;;;2.95;;
72406;SDS011;60396;47.550;18.828;2023-05-07T13:39:25;7.37;;;3.03;;
72406;SDS011;60396;47.550;18.828;2023-05-07T13:41:53;9.18;;;3.00;;
72406;SDS011;60396;47.550;18.828;2023-05-07T13:44:20;6.90;;;2.85;;
72406;SDS011;60396;47.550;18.828;2023-05-07T13:46:48;7.47;;;2.87;;
72406;SDS011;60396;47.550;18.828;2023-05-07T13:49:16;7.03;;;2.58;;
72406;SDS011;60396;47.550;18.828;2023-05-07T13:51:44;6.05;;;2.92;;
72406;SDS011;60396;47.550;18.828;2023-05-07T13:54:11;5.40;;;2.40;;
72406;SDS011;60396;47.550;18.828;2023-05-07T13:56:39;6.80;;;3.00;;
72406;SDS011;60396;47.550;18.828;2023-05-07T13:59:10;8.43;;;2.70;;
72406;SDS011;60396;47.550;18.828;2023-05-07T14:01:40;7.45;;;2.70;;
72406;SDS011;60396;47.550;18.828;2023-05-07T14:04:08;8.93;;;3.25;;
72406;SDS011;60396;47.550;18.828;2023-05-07T14:06:39;5.78;;;2.80;;
72406;SDS011;60396;47.550;18.828;2023-05-07T14:09:07;8.45;;;3.53;;
72406;SDS011;60396;47.550;18.828;2023-05-07T14:11:35;7.63;;;3.20;;
72406;SDS011;60396;47.550;18.828;2023-05-07T14:14:02;7.47;;;3.30;;
72406;SDS011;60396;47.550;18.828;2023-05-07T14:16:30;7.60;;;3.35;;
72406;SDS011;60396;47.550;18.828;2023-05-07T14:18:58;8.10;;;3.05;;
72406;SDS011;60396;47.550;18.828;2023-05-07T14:21:25;8.70;;;3.60;;
72406;SDS011;60396;47.550;18.828;2023-05-07T14:23:54;8.73;;;3.90;;
72406;SDS011;60396;47.550;18.828;2023-05-07T14:26:24;7.60;;;3.97;;
72406;SDS011;60396;47.550;18.828;2023-05-07T14:28:52;11.32;;;4.28;;
72406;SDS011;60396;47.550;18.828;2023-05-07T14:31:22;9.07;;;4.03;;
72406;SDS011;60396;47.550;18.828;2023-05-07T14:33:50;7.32;;;3.50;;
72406;SDS011;60396;47.550;18.828;2023-05-07T14:36:19;7.90;;;3.10;;
72406;SDS011;60396;47.550;18.828;2023-05-07T14:38:53;8.85;;;3.80;;
72406;SDS011;60396;47.550;18.828;2023-05-07T14:41:22;10.57;;;4.43;;
72406;SDS011;60396;47.550;18.828;2023-05-07T14:43:50;9.32;;;3.70;;
72406;SDS011;60396;47.550;18.828;2023-05-07T14:46:19;7.65;;;3.97;;
72406;SDS011;60396;47.550;18.828;2023-05-07T14:48:47;10.07;;;4.00;;
72406;SDS011;60396;47.550;18.828;2023-05-07T14:51:14;8.35;;;3.80;;
72406;SDS011;60396;47.550;18.828;2023-05-07T14:53:45;7.45;;;3.70;;
72406;SDS011;60396;47.550;18.828;2023-05-07T14:56:12;8.70;;;2.97;;